sensor_id;sensor_type;location;lat;lon;timestamp;P1;durP1;ratioP1;P2;durP2;ratioP2
24259;SDS011;12384;48.112;18.418;2023-04-25T00:02:08;7.83;;;7.33;;
24259;SDS011;12384;48.112;18.418;2023-04-25T00:04:37;8.00;;;7.50;;
24259;SDS011;12384;48.112;18.418;2023-04-25T00:07:06;7.83;;;7.30;;
24259;SDS011;12384;48.112;18.418;2023-04-25T00:09:36;8.10;;;7.60;;
24259;SDS011;12384;48.112;18.418;2023-04-25T00:12:04;8.03;;;7.53;;
24259;SDS011;12384;48.112;18.418;2023-04-25T00:14:33;8.30;;;7.60;;
24259;SDS011;12384;48.112;18.418;2023-04-25T00:17:02;8.20;;;7.70;;
24259;SDS011;12384;48.112;18.418;2023-04-25T00:19:30;7.93;;;7.43;;
24259;SDS011;12384;48.112;18.418;2023-04-25T00:22:01;7.77;;;7.27;;
24259;SDS011;12384;48.112;18.418;2023-04-25T00:24:29;8.17;;;7.60;;
24259;SDS011;12384;48.112;18.418;2023-04-25T00:26:59;8.50;;;8.00;;
24259;SDS011;12384;48.112;18.418;2023-04-25T00:29:27;8.27;;;7.63;;
24259;SDS011;12384;48.112;18.418;2023-04-25T00:31:57;7.90;;;7.40;;
24259;SDS011;12384;48.112;18.418;2023-04-25T00:34:25;7.67;;;7.23;;
24259;SDS011;12384;48.112;18.418;2023-04-25T00:36:53;7.57;;;7.10;;
24259;SDS011;12384;48.112;18.418;2023-04-25T00:39:23;8.20;;;7.60;;
24259;SDS011;12384;48.112;18.418;2023-04-25T00:41:52;8.13;;;7.63;;
24259;SDS011;12384;48.112;18.418;2023-04-25T00:44:23;8.77;;;8.17;;
24259;SDS011;12384;48.112;18.418;2023-04-25T00:46:53;8.67;;;8.07;;
24259;SDS011;12384;48.112;18.418;2023-04-25T00:49:21;8.43;;;7.83;;
24259;SDS011;12384;48.112;18.418;2023-04-25T00:51:50;8.27;;;7.77;;
24259;SDS011;12384;48.112;18.418;2023-04-25T00:54:18;8.40;;;7.90;;
24259;SDS011;12384;48.112;18.418;2023-04-25T00:56:47;8.07;;;7.57;;
24259;SDS011;12384;48.112;18.418;2023-04-25T00:59:15;8.73;;;8.13;;
24259;SDS011;12384;48.112;18.418;2023-04-25T01:01:46;8.23;;;7.73;;
24259;SDS011;12384;48.112;18.418;2023-04-25T01:04:14;8.53;;;8.03;;
24259;SDS011;12384;48.112;18.418;2023-04-25T01:06:43;8.47;;;7.80;;
24259;SDS011;12384;48.112;18.418;2023-04-25T01:09:12;9.30;;;8.47;;
24259;SDS011;12384;48.112;18.418;2023-04-25T01:11:41;8.43;;;7.93;;
24259;SDS011;12384;48.112;18.418;2023-04-25T01:14:09;8.60;;;8.00;;
24259;SDS011;12384;48.112;18.418;2023-04-25T01:16:38;8.80;;;8.10;;
24259;SDS011;12384;48.112;18.418;2023-04-25T01:19:10;8.80;;;8.20;;
24259;SDS011;12384;48.112;18.418;2023-04-25T01:21:40;9.00;;;8.40;;
24259;SDS011;12384;48.112;18.418;2023-04-25T01:24:08;8.80;;;8.20;;
24259;SDS011;12384;48.112;18.418;2023-04-25T01:26:37;8.97;;;8.30;;
24259;SDS011;12384;48.112;18.418;2023-04-25T01:29:10;9.40;;;8.57;;
24259;SDS011;12384;48.112;18.418;2023-04-25T01:31:39;9.60;;;9.00;;
24259;SDS011;12384;48.112;18.418;2023-04-25T01:34:08;8.83;;;8.23;;
24259;SDS011;12384;48.112;18.418;2023-04-25T01:36:37;9.23;;;8.53;;
24259;SDS011;12384;48.112;18.418;2023-04-25T01:39:07;8.37;;;7.87;;
24259;SDS011;12384;48.112;18.418;2023-04-25T01:41:35;8.33;;;7.83;;
24259;SDS011;12384;48.112;18.418;2023-04-25T01:44:04;8.60;;;8.00;;
24259;SDS011;12384;48.112;18.418;2023-04-25T01:46:33;9.17;;;8.53;;
24259;SDS011;12384;48.112;18.418;2023-04-25T01:49:02;9.60;;;9.00;;
24259;SDS011;12384;48.112;18.418;2023-04-25T01:51:32;9.80;;;9.20;;
24259;SDS011;12384;48.112;18.418;2023-04-25T01:54:01;9.20;;;8.50;;
24259;SDS011;12384;48.112;18.418;2023-04-25T01:56:31;10.10;;;9.30;;
24259;SDS011;12384;48.112;18.418;2023-04-25T01:59:01;9.67;;;8.97;;
24259;SDS011;12384;48.112;18.418;2023-04-25T02:01:48;9.17;;;8.57;;
24259;SDS011;12384;48.112;18.418;2023-04-25T02:04:25;8.37;;;7.87;;
24259;SDS011;12384;48.112;18.418;2023-04-25T02:06:54;9.23;;;8.53;;
24259;SDS011;12384;48.112;18.418;2023-04-25T02:09:28;8.40;;;7.80;;
24259;SDS011;12384;48.112;18.418;2023-04-25T02:11:59;8.67;;;8.07;;
24259;SDS011;12384;48.112;18.418;2023-04-25T02:14:54;9.37;;;8.70;;
24259;SDS011;12384;48.112;18.418;2023-04-25T02:17:35;8.57;;;7.93;;
24259;SDS011;12384;48.112;18.418;2023-04-25T02:20:04;8.97;;;8.37;;
24259;SDS011;12384;48.112;18.418;2023-04-25T02:22:33;8.03;;;7.43;;
24259;SDS011;12384;48.112;18.418;2023-04-25T02:25:05;8.90;;;8.30;;
24259;SDS011;12384;48.112;18.418;2023-04-25T02:27:36;8.73;;;8.13;;
24259;SDS011;12384;48.112;18.418;2023-04-25T02:30:07;9.23;;;8.53;;
24259;SDS011;12384;48.112;18.418;2023-04-25T02:32:36;9.10;;;8.40;;
24259;SDS011;12384;48.112;18.418;2023-04-25T02:35:04;9.63;;;9.03;;
24259;SDS011;12384;48.112;18.418;2023-04-25T02:37:34;9.63;;;9.03;;
24259;SDS011;12384;48.112;18.418;2023-04-25T02:40:06;8.67;;;8.07;;
24259;SDS011;12384;48.112;18.418;2023-04-25T02:42:37;9.60;;;8.77;;
24259;SDS011;12384;48.112;18.418;2023-04-25T02:45:05;8.23;;;7.63;;
24259;SDS011;12384;48.112;18.418;2023-04-25T02:47:34;8.53;;;7.93;;
24259;SDS011;12384;48.112;18.418;2023-04-25T02:50:03;8.10;;;7.60;;
24259;SDS011;12384;48.112;18.418;2023-04-25T02:52:32;8.53;;;7.93;;
24259;SDS011;12384;48.112;18.418;2023-04-25T02:55:09;8.37;;;7.77;;
24259;SDS011;12384;48.112;18.418;2023-04-25T02:57:40;9.10;;;8.50;;
24259;SDS011;12384;48.112;18.418;2023-04-25T03:00:12;8.37;;;7.77;;
24259;SDS011;12384;48.112;18.418;2023-04-25T03:02:41;8.70;;;8.10;;
24259;SDS011;12384;48.112;18.418;2023-04-25T03:05:10;9.10;;;8.50;;
24259;SDS011;12384;48.112;18.418;2023-04-25T03:07:39;8.73;;;8.13;;
24259;SDS011;12384;48.112;18.418;2023-04-25T03:10:09;8.53;;;7.93;;
24259;SDS011;12384;48.112;18.418;2023-04-25T03:12:38;8.53;;;7.73;;
24259;SDS011;12384;48.112;18.418;2023-04-25T03:15:09;7.90;;;7.40;;
24259;SDS011;12384;48.112;18.418;2023-04-25T03:17:38;8.60;;;8.00;;
24259;SDS011;12384;48.112;18.418;2023-04-25T03:20:08;8.93;;;8.33;;
24259;SDS011;12384;48.112;18.418;2023-04-25T03:22:37;7.90;;;7.40;;
24259;SDS011;12384;48.112;18.418;2023-04-25T03:25:06;8.50;;;7.90;;
24259;SDS011;12384;48.112;18.418;2023-04-25T03:27:35;9.17;;;8.47;;
24259;SDS011;12384;48.112;18.418;2023-04-25T03:30:07;8.47;;;7.97;;
24259;SDS011;12384;48.112;18.418;2023-04-25T03:32:37;9.50;;;8.90;;
24259;SDS011;12384;48.112;18.418;2023-04-25T03:35:06;9.07;;;8.47;;
24259;SDS011;12384;48.112;18.418;2023-04-25T03:37:35;9.07;;;8.37;;
24259;SDS011;12384;48.112;18.418;2023-04-25T03:40:03;9.17;;;8.43;;
24259;SDS011;12384;48.112;18.418;2023-04-25T03:42:52;9.13;;;8.53;;
24259;SDS011;12384;48.112;18.418;2023-04-25T03:45:23;9.07;;;8.30;;
24259;SDS011;12384;48.112;18.418;2023-04-25T03:47:51;8.70;;;8.10;;
24259;SDS011;12384;48.112;18.418;2023-04-25T03:50:20;9.10;;;8.50;;
24259;SDS011;12384;48.112;18.418;2023-04-25T03:52:48;8.60;;;8.00;;
24259;SDS011;12384;48.112;18.418;2023-04-25T03:55:17;8.83;;;8.00;;
24259;SDS011;12384;48.112;18.418;2023-04-25T03:57:46;8.20;;;7.63;;
24259;SDS011;12384;48.112;18.418;2023-04-25T04:00:16;8.07;;;7.40;;
24259;SDS011;12384;48.112;18.418;2023-04-25T04:02:45;8.27;;;7.70;;
24259;SDS011;12384;48.112;18.418;2023-04-25T04:05:14;9.30;;;8.70;;
24259;SDS011;12384;48.112;18.418;2023-04-25T04:07:51;8.93;;;8.17;;
24259;SDS011;12384;48.112;18.418;2023-04-25T04:10:19;10.13;;;9.33;;
24259;SDS011;12384;48.112;18.418;2023-04-25T04:12:48;9.37;;;8.67;;
24259;SDS011;12384;48.112;18.418;2023-04-25T04:15:17;9.83;;;9.20;;
24259;SDS011;12384;48.112;18.418;2023-04-25T04:17:49;9.63;;;9.00;;
24259;SDS011;12384;48.112;18.418;2023-04-25T04:20:17;9.83;;;9.13;;
24259;SDS011;12384;48.112;18.418;2023-04-25T04:22:46;8.80;;;8.30;;
24259;SDS011;12384;48.112;18.418;2023-04-25T04:25:16;10.07;;;9.27;;
24259;SDS011;12384;48.112;18.418;2023-04-25T04:28:03;8.50;;;7.90;;
24259;SDS011;12384;48.112;18.418;2023-04-25T04:30:51;8.87;;;8.13;;
24259;SDS011;12384;48.112;18.418;2023-04-25T04:33:20;8.70;;;8.10;;
24259;SDS011;12384;48.112;18.418;2023-04-25T04:35:55;8.30;;;7.80;;
24259;SDS011;12384;48.112;18.418;2023-04-25T04:38:27;8.40;;;7.80;;
24259;SDS011;12384;48.112;18.418;2023-04-25T04:40:59;8.67;;;7.97;;
24259;SDS011;12384;48.112;18.418;2023-04-25T04:43:49;8.50;;;7.63;;
24259;SDS011;12384;48.112;18.418;2023-04-25T04:46:42;8.37;;;7.73;;
24259;SDS011;12384;48.112;18.418;2023-04-25T04:49:30;8.33;;;7.73;;
24259;SDS011;12384;48.112;18.418;2023-04-25T04:52:19;7.90;;;7.30;;
24259;SDS011;12384;48.112;18.418;2023-04-25T04:54:55;8.50;;;7.90;;
24259;SDS011;12384;48.112;18.418;2023-04-25T04:57:59;7.67;;;7.17;;
24259;SDS011;12384;48.112;18.418;2023-04-25T05:00:57;7.77;;;7.17;;
24259;SDS011;12384;48.112;18.418;2023-04-25T05:03:32;7.40;;;6.80;;
24259;SDS011;12384;48.112;18.418;2023-04-25T05:06:24;7.13;;;6.57;;
24259;SDS011;12384;48.112;18.418;2023-04-25T05:09:13;6.90;;;6.40;;
24259;SDS011;12384;48.112;18.418;2023-04-25T05:11:55;7.20;;;6.60;;
24259;SDS011;12384;48.112;18.418;2023-04-25T05:14:36;7.30;;;6.73;;
24259;SDS011;12384;48.112;18.418;2023-04-25T05:17:28;7.73;;;7.23;;
24259;SDS011;12384;48.112;18.418;2023-04-25T05:20:15;7.40;;;6.90;;
24259;SDS011;12384;48.112;18.418;2023-04-25T05:23:05;8.07;;;7.47;;
24259;SDS011;12384;48.112;18.418;2023-04-25T05:25:53;7.73;;;7.20;;
24259;SDS011;12384;48.112;18.418;2023-04-25T05:28:36;8.03;;;7.43;;
24259;SDS011;12384;48.112;18.418;2023-04-25T05:31:23;7.87;;;7.27;;
24259;SDS011;12384;48.112;18.418;2023-04-25T05:34:13;7.33;;;6.80;;
24259;SDS011;12384;48.112;18.418;2023-04-25T05:36:54;7.60;;;6.90;;
24259;SDS011;12384;48.112;18.418;2023-04-25T05:39:25;7.47;;;6.97;;
24259;SDS011;12384;48.112;18.418;2023-04-25T05:42:20;8.50;;;7.80;;
24259;SDS011;12384;48.112;18.418;2023-04-25T05:44:48;9.13;;;8.53;;
24259;SDS011;12384;48.112;18.418;2023-04-25T05:47:24;8.83;;;8.30;;
24259;SDS011;12384;48.112;18.418;2023-04-25T05:50:06;7.73;;;7.23;;
24259;SDS011;12384;48.112;18.418;2023-04-25T05:52:54;7.53;;;7.03;;
24259;SDS011;12384;48.112;18.418;2023-04-25T05:55:28;7.87;;;7.30;;
24259;SDS011;12384;48.112;18.418;2023-04-25T05:57:59;7.87;;;7.17;;
24259;SDS011;12384;48.112;18.418;2023-04-25T06:00:28;7.73;;;7.13;;
24259;SDS011;12384;48.112;18.418;2023-04-25T06:02:57;7.70;;;7.10;;
24259;SDS011;12384;48.112;18.418;2023-04-25T06:05:25;8.33;;;7.73;;
24259;SDS011;12384;48.112;18.418;2023-04-25T06:07:54;7.40;;;6.83;;
24259;SDS011;12384;48.112;18.418;2023-04-25T06:10:22;7.47;;;6.93;;
24259;SDS011;12384;48.112;18.418;2023-04-25T06:12:52;7.63;;;7.07;;
24259;SDS011;12384;48.112;18.418;2023-04-25T06:15:22;7.83;;;6.67;;
24259;SDS011;12384;48.112;18.418;2023-04-25T06:17:55;8.10;;;7.50;;
24259;SDS011;12384;48.112;18.418;2023-04-25T06:20:23;7.90;;;7.33;;
24259;SDS011;12384;48.112;18.418;2023-04-25T06:22:55;7.67;;;7.10;;
24259;SDS011;12384;48.112;18.418;2023-04-25T06:25:37;8.73;;;8.03;;
24259;SDS011;12384;48.112;18.418;2023-04-25T06:28:07;8.43;;;7.83;;
24259;SDS011;12384;48.112;18.418;2023-04-25T06:30:36;8.27;;;7.63;;
24259;SDS011;12384;48.112;18.418;2023-04-25T06:33:09;8.07;;;7.57;;
24259;SDS011;12384;48.112;18.418;2023-04-25T06:35:39;7.63;;;7.13;;
24259;SDS011;12384;48.112;18.418;2023-04-25T06:38:11;7.80;;;7.30;;
24259;SDS011;12384;48.112;18.418;2023-04-25T06:40:43;8.57;;;8.00;;
24259;SDS011;12384;48.112;18.418;2023-04-25T06:43:13;8.83;;;8.20;;
24259;SDS011;12384;48.112;18.418;2023-04-25T06:45:55;8.13;;;7.60;;
24259;SDS011;12384;48.112;18.418;2023-04-25T06:48:26;8.70;;;8.10;;
24259;SDS011;12384;48.112;18.418;2023-04-25T06:50:55;8.87;;;8.33;;
24259;SDS011;12384;48.112;18.418;2023-04-25T06:53:24;9.30;;;8.70;;
24259;SDS011;12384;48.112;18.418;2023-04-25T06:55:58;9.00;;;8.30;;
24259;SDS011;12384;48.112;18.418;2023-04-25T06:59:07;9.60;;;9.00;;
24259;SDS011;12384;48.112;18.418;2023-04-25T07:01:37;9.30;;;8.70;;
24259;SDS011;12384;48.112;18.418;2023-04-25T07:04:15;9.10;;;8.30;;
24259;SDS011;12384;48.112;18.418;2023-04-25T07:06:49;8.83;;;8.23;;
24259;SDS011;12384;48.112;18.418;2023-04-25T07:09:22;8.77;;;8.27;;
24259;SDS011;12384;48.112;18.418;2023-04-25T07:11:51;9.13;;;8.50;;
24259;SDS011;12384;48.112;18.418;2023-04-25T07:14:21;8.80;;;8.10;;
24259;SDS011;12384;48.112;18.418;2023-04-25T07:16:49;9.90;;;9.20;;
24259;SDS011;12384;48.112;18.418;2023-04-25T07:19:18;8.93;;;8.33;;
24259;SDS011;12384;48.112;18.418;2023-04-25T07:21:47;9.30;;;8.63;;
24259;SDS011;12384;48.112;18.418;2023-04-25T07:24:20;9.90;;;9.23;;
24259;SDS011;12384;48.112;18.418;2023-04-25T07:26:50;9.13;;;8.53;;
24259;SDS011;12384;48.112;18.418;2023-04-25T07:29:27;9.17;;;8.57;;
24259;SDS011;12384;48.112;18.418;2023-04-25T07:31:58;10.53;;;9.67;;
24259;SDS011;12384;48.112;18.418;2023-04-25T07:34:27;9.60;;;9.00;;
24259;SDS011;12384;48.112;18.418;2023-04-25T07:36:56;9.70;;;9.10;;
24259;SDS011;12384;48.112;18.418;2023-04-25T07:39:33;9.90;;;9.30;;
24259;SDS011;12384;48.112;18.418;2023-04-25T07:42:01;10.40;;;9.70;;
24259;SDS011;12384;48.112;18.418;2023-04-25T07:44:31;9.80;;;9.20;;
24259;SDS011;12384;48.112;18.418;2023-04-25T07:47:07;9.33;;;8.67;;
24259;SDS011;12384;48.112;18.418;2023-04-25T07:49:37;9.60;;;9.00;;
24259;SDS011;12384;48.112;18.418;2023-04-25T07:52:05;9.07;;;8.47;;
24259;SDS011;12384;48.112;18.418;2023-04-25T07:54:36;9.07;;;8.53;;
24259;SDS011;12384;48.112;18.418;2023-04-25T07:57:13;9.23;;;8.63;;
24259;SDS011;12384;48.112;18.418;2023-04-25T07:59:46;9.50;;;8.80;;
24259;SDS011;12384;48.112;18.418;2023-04-25T08:02:15;9.03;;;8.53;;
24259;SDS011;12384;48.112;18.418;2023-04-25T08:04:44;10.13;;;9.43;;
24259;SDS011;12384;48.112;18.418;2023-04-25T08:07:16;9.63;;;8.97;;
24259;SDS011;12384;48.112;18.418;2023-04-25T08:09:49;9.53;;;8.90;;
24259;SDS011;12384;48.112;18.418;2023-04-25T08:12:27;10.03;;;9.43;;
24259;SDS011;12384;48.112;18.418;2023-04-25T08:14:57;9.47;;;8.90;;
24259;SDS011;12384;48.112;18.418;2023-04-25T08:17:30;9.43;;;8.83;;
24259;SDS011;12384;48.112;18.418;2023-04-25T08:19:59;9.53;;;8.93;;
24259;SDS011;12384;48.112;18.418;2023-04-25T08:22:30;9.07;;;8.57;;
24259;SDS011;12384;48.112;18.418;2023-04-25T08:25:17;9.10;;;8.60;;
24259;SDS011;12384;48.112;18.418;2023-04-25T08:27:45;8.87;;;8.37;;
24259;SDS011;12384;48.112;18.418;2023-04-25T08:30:17;8.57;;;8.07;;
24259;SDS011;12384;48.112;18.418;2023-04-25T08:32:48;8.13;;;7.63;;
24259;SDS011;12384;48.112;18.418;2023-04-25T08:35:39;8.17;;;7.77;;
24259;SDS011;12384;48.112;18.418;2023-04-25T08:38:08;8.33;;;7.83;;
24259;SDS011;12384;48.112;18.418;2023-04-25T08:40:37;7.90;;;7.40;;
24259;SDS011;12384;48.112;18.418;2023-04-25T08:43:12;8.10;;;7.70;;
24259;SDS011;12384;48.112;18.418;2023-04-25T08:45:44;7.87;;;7.47;;
24259;SDS011;12384;48.112;18.418;2023-04-25T08:48:21;8.00;;;7.60;;
24259;SDS011;12384;48.112;18.418;2023-04-25T08:50:52;7.97;;;7.53;;
24259;SDS011;12384;48.112;18.418;2023-04-25T08:53:26;7.90;;;7.50;;
24259;SDS011;12384;48.112;18.418;2023-04-25T08:56:00;7.73;;;7.33;;
24259;SDS011;12384;48.112;18.418;2023-04-25T08:58:33;7.90;;;7.50;;
24259;SDS011;12384;48.112;18.418;2023-04-25T09:01:04;7.90;;;7.50;;
24259;SDS011;12384;48.112;18.418;2023-04-25T09:03:42;8.73;;;8.23;;
24259;SDS011;12384;48.112;18.418;2023-04-25T09:06:13;7.80;;;7.40;;
24259;SDS011;12384;48.112;18.418;2023-04-25T09:08:43;7.83;;;7.43;;
24259;SDS011;12384;48.112;18.418;2023-04-25T09:11:12;7.60;;;7.20;;
24259;SDS011;12384;48.112;18.418;2023-04-25T09:13:41;7.20;;;6.90;;
24259;SDS011;12384;48.112;18.418;2023-04-25T09:16:23;7.70;;;7.30;;
24259;SDS011;12384;48.112;18.418;2023-04-25T09:19:25;8.23;;;7.83;;
24259;SDS011;12384;48.112;18.418;2023-04-25T09:22:16;8.00;;;7.60;;
24259;SDS011;12384;48.112;18.418;2023-04-25T09:24:48;7.90;;;7.50;;
24259;SDS011;12384;48.112;18.418;2023-04-25T09:27:20;7.70;;;7.30;;
24259;SDS011;12384;48.112;18.418;2023-04-25T09:29:57;8.10;;;7.70;;
24259;SDS011;12384;48.112;18.418;2023-04-25T09:32:35;8.33;;;7.93;;
24259;SDS011;12384;48.112;18.418;2023-04-25T09:35:04;8.83;;;8.43;;
24259;SDS011;12384;48.112;18.418;2023-04-25T09:37:34;8.70;;;8.30;;
24259;SDS011;12384;48.112;18.418;2023-04-25T09:40:05;8.33;;;7.93;;
24259;SDS011;12384;48.112;18.418;2023-04-25T09:42:48;9.00;;;8.50;;
24259;SDS011;12384;48.112;18.418;2023-04-25T09:45:17;8.50;;;8.10;;
24259;SDS011;12384;48.112;18.418;2023-04-25T09:47:47;8.30;;;7.90;;
24259;SDS011;12384;48.112;18.418;2023-04-25T09:50:23;8.37;;;7.97;;
24259;SDS011;12384;48.112;18.418;2023-04-25T09:53:04;8.53;;;8.10;;
24259;SDS011;12384;48.112;18.418;2023-04-25T09:56:03;7.83;;;7.43;;
24259;SDS011;12384;48.112;18.418;2023-04-25T09:58:34;7.50;;;7.10;;
24259;SDS011;12384;48.112;18.418;2023-04-25T10:01:04;6.97;;;6.67;;
24259;SDS011;12384;48.112;18.418;2023-04-25T10:03:45;8.27;;;7.87;;
24259;SDS011;12384;48.112;18.418;2023-04-25T10:06:44;9.07;;;8.47;;
24259;SDS011;12384;48.112;18.418;2023-04-25T10:09:17;8.57;;;8.07;;
24259;SDS011;12384;48.112;18.418;2023-04-25T10:11:47;9.23;;;8.73;;
24259;SDS011;12384;48.112;18.418;2023-04-25T10:14:17;8.23;;;7.83;;
24259;SDS011;12384;48.112;18.418;2023-04-25T10:16:47;8.63;;;8.23;;
24259;SDS011;12384;48.112;18.418;2023-04-25T10:19:17;7.40;;;7.10;;
24259;SDS011;12384;48.112;18.418;2023-04-25T10:21:48;8.13;;;7.73;;
24259;SDS011;12384;48.112;18.418;2023-04-25T10:24:19;8.10;;;7.70;;
24259;SDS011;12384;48.112;18.418;2023-04-25T10:26:48;8.17;;;7.77;;
24259;SDS011;12384;48.112;18.418;2023-04-25T10:29:24;8.10;;;7.70;;
24259;SDS011;12384;48.112;18.418;2023-04-25T10:31:53;8.43;;;8.03;;
24259;SDS011;12384;48.112;18.418;2023-04-25T10:34:37;8.50;;;7.90;;
24259;SDS011;12384;48.112;18.418;2023-04-25T10:37:09;9.10;;;8.60;;
24259;SDS011;12384;48.112;18.418;2023-04-25T10:39:38;8.70;;;8.27;;
24259;SDS011;12384;48.112;18.418;2023-04-25T10:42:08;8.40;;;8.00;;
24259;SDS011;12384;48.112;18.418;2023-04-25T10:44:37;8.50;;;8.00;;
24259;SDS011;12384;48.112;18.418;2023-04-25T10:47:07;8.07;;;7.67;;
24259;SDS011;12384;48.112;18.418;2023-04-25T10:49:41;8.30;;;7.90;;
24259;SDS011;12384;48.112;18.418;2023-04-25T10:52:17;8.43;;;7.87;;
24259;SDS011;12384;48.112;18.418;2023-04-25T10:54:52;8.00;;;7.60;;
24259;SDS011;12384;48.112;18.418;2023-04-25T10:57:29;9.30;;;8.80;;
24259;SDS011;12384;48.112;18.418;2023-04-25T11:00:06;8.30;;;7.90;;
24259;SDS011;12384;48.112;18.418;2023-04-25T11:02:42;8.40;;;8.00;;
24259;SDS011;12384;48.112;18.418;2023-04-25T11:05:26;9.00;;;8.50;;
24259;SDS011;12384;48.112;18.418;2023-04-25T11:08:07;8.40;;;8.00;;
24259;SDS011;12384;48.112;18.418;2023-04-25T11:10:40;8.77;;;8.37;;
24259;SDS011;12384;48.112;18.418;2023-04-25T11:13:09;9.33;;;8.83;;
24259;SDS011;12384;48.112;18.418;2023-04-25T11:15:37;9.27;;;8.80;;
24259;SDS011;12384;48.112;18.418;2023-04-25T11:18:06;8.47;;;8.07;;
24259;SDS011;12384;48.112;18.418;2023-04-25T11:20:36;9.27;;;8.77;;
24259;SDS011;12384;48.112;18.418;2023-04-25T11:23:04;9.43;;;8.93;;
24259;SDS011;12384;48.112;18.418;2023-04-25T11:25:33;9.80;;;9.00;;
24259;SDS011;12384;48.112;18.418;2023-04-25T11:28:04;8.57;;;8.17;;
24259;SDS011;12384;48.112;18.418;2023-04-25T11:30:33;9.07;;;8.57;;
24259;SDS011;12384;48.112;18.418;2023-04-25T11:33:01;9.57;;;8.97;;
24259;SDS011;12384;48.112;18.418;2023-04-25T11:35:30;9.00;;;8.50;;
24259;SDS011;12384;48.112;18.418;2023-04-25T11:38:01;9.20;;;8.70;;
24259;SDS011;12384;48.112;18.418;2023-04-25T11:40:30;8.13;;;7.73;;
24259;SDS011;12384;48.112;18.418;2023-04-25T11:42:59;8.40;;;7.90;;
24259;SDS011;12384;48.112;18.418;2023-04-25T11:45:28;9.07;;;8.57;;
24259;SDS011;12384;48.112;18.418;2023-04-25T11:47:57;8.33;;;7.93;;
24259;SDS011;12384;48.112;18.418;2023-04-25T11:50:26;8.60;;;8.10;;
24259;SDS011;12384;48.112;18.418;2023-04-25T11:52:56;9.30;;;8.80;;
24259;SDS011;12384;48.112;18.418;2023-04-25T11:55:26;8.90;;;8.30;;
24259;SDS011;12384;48.112;18.418;2023-04-25T11:57:59;8.48;;;8.07;;
24259;SDS011;12384;48.112;18.418;2023-04-25T12:00:28;8.55;;;7.95;;
24259;SDS011;12384;48.112;18.418;2023-04-25T12:02:57;9.45;;;8.95;;
24259;SDS011;12384;48.112;18.418;2023-04-25T12:05:27;8.40;;;8.00;;
24259;SDS011;12384;48.112;18.418;2023-04-25T12:08:11;8.70;;;8.20;;
24259;SDS011;12384;48.112;18.418;2023-04-25T12:10:43;8.10;;;7.70;;
24259;SDS011;12384;48.112;18.418;2023-04-25T12:13:19;9.43;;;8.82;;
24259;SDS011;12384;48.112;18.418;2023-04-25T12:15:49;7.90;;;7.50;;
24259;SDS011;12384;48.112;18.418;2023-04-25T12:18:22;9.30;;;8.80;;
24259;SDS011;12384;48.112;18.418;2023-04-25T12:20:54;8.02;;;7.63;;
24259;SDS011;12384;48.112;18.418;2023-04-25T12:23:26;8.65;;;8.18;;
24259;SDS011;12384;48.112;18.418;2023-04-25T12:25:56;8.60;;;8.10;;
24259;SDS011;12384;48.112;18.418;2023-04-25T12:28:25;9.07;;;8.57;;
24259;SDS011;12384;48.112;18.418;2023-04-25T12:30:55;9.13;;;8.63;;
24259;SDS011;12384;48.112;18.418;2023-04-25T12:33:26;9.32;;;8.82;;
24259;SDS011;12384;48.112;18.418;2023-04-25T12:35:55;9.13;;;8.63;;
24259;SDS011;12384;48.112;18.418;2023-04-25T12:38:25;9.10;;;8.60;;
24259;SDS011;12384;48.112;18.418;2023-04-25T12:40:57;9.85;;;9.35;;
24259;SDS011;12384;48.112;18.418;2023-04-25T12:43:26;9.38;;;8.88;;
24259;SDS011;12384;48.112;18.418;2023-04-25T12:45:55;9.48;;;8.98;;
24259;SDS011;12384;48.112;18.418;2023-04-25T12:48:24;10.27;;;9.77;;
24259;SDS011;12384;48.112;18.418;2023-04-25T12:50:53;9.80;;;9.30;;
24259;SDS011;12384;48.112;18.418;2023-04-25T12:53:22;9.73;;;9.23;;
24259;SDS011;12384;48.112;18.418;2023-04-25T12:55:51;9.00;;;8.50;;
24259;SDS011;12384;48.112;18.418;2023-04-25T12:58:22;9.70;;;9.20;;
24259;SDS011;12384;48.112;18.418;2023-04-25T13:00:51;9.55;;;9.05;;
24259;SDS011;12384;48.112;18.418;2023-04-25T13:03:20;8.75;;;8.35;;
24259;SDS011;12384;48.112;18.418;2023-04-25T13:05:49;9.70;;;9.20;;
24259;SDS011;12384;48.112;18.418;2023-04-25T13:08:19;10.18;;;9.57;;
24259;SDS011;12384;48.112;18.418;2023-04-25T13:10:47;9.32;;;8.82;;
24259;SDS011;12384;48.112;18.418;2023-04-25T13:13:16;9.90;;;9.40;;
24259;SDS011;12384;48.112;18.418;2023-04-25T13:15:45;9.20;;;8.70;;
24259;SDS011;12384;48.112;18.418;2023-04-25T13:18:14;9.82;;;9.27;;
24259;SDS011;12384;48.112;18.418;2023-04-25T13:20:43;9.60;;;9.00;;
24259;SDS011;12384;48.112;18.418;2023-04-25T13:23:12;9.20;;;8.70;;
24259;SDS011;12384;48.112;18.418;2023-04-25T13:25:41;9.07;;;8.57;;
24259;SDS011;12384;48.112;18.418;2023-04-25T13:28:09;9.50;;;9.00;;
24259;SDS011;12384;48.112;18.418;2023-04-25T13:30:38;9.38;;;8.88;;
24259;SDS011;12384;48.112;18.418;2023-04-25T13:33:07;9.13;;;8.63;;
24259;SDS011;12384;48.112;18.418;2023-04-25T13:35:37;9.40;;;8.90;;
24259;SDS011;12384;48.112;18.418;2023-04-25T13:38:06;9.57;;;9.07;;
24259;SDS011;12384;48.112;18.418;2023-04-25T13:40:35;8.60;;;8.20;;
24259;SDS011;12384;48.112;18.418;2023-04-25T13:43:04;9.43;;;8.93;;
24259;SDS011;12384;48.112;18.418;2023-04-25T13:45:32;9.25;;;8.75;;
24259;SDS011;12384;48.112;18.418;2023-04-25T13:48:01;9.05;;;8.55;;
24259;SDS011;12384;48.112;18.418;2023-04-25T13:50:31;8.43;;;8.02;;
24259;SDS011;12384;48.112;18.418;2023-04-25T13:53:00;8.90;;;8.50;;
24259;SDS011;12384;48.112;18.418;2023-04-25T13:55:28;9.15;;;8.65;;
24259;SDS011;12384;48.112;18.418;2023-04-25T13:57:57;9.40;;;8.90;;
24259;SDS011;12384;48.112;18.418;2023-04-25T14:00:25;9.15;;;8.70;;
24259;SDS011;12384;48.112;18.418;2023-04-25T14:02:54;9.15;;;8.48;;
24259;SDS011;12384;48.112;18.418;2023-04-25T14:05:22;9.95;;;9.27;;
24259;SDS011;12384;48.112;18.418;2023-04-25T14:07:52;10.38;;;9.68;;
24259;SDS011;12384;48.112;18.418;2023-04-25T14:10:22;9.83;;;9.13;;
24259;SDS011;12384;48.112;18.418;2023-04-25T14:12:50;10.40;;;9.70;;
24259;SDS011;12384;48.112;18.418;2023-04-25T14:15:18;10.50;;;9.90;;
24259;SDS011;12384;48.112;18.418;2023-04-25T14:17:47;10.20;;;9.50;;
24259;SDS011;12384;48.112;18.418;2023-04-25T14:20:16;9.67;;;9.17;;
24259;SDS011;12384;48.112;18.418;2023-04-25T14:22:46;10.23;;;9.53;;
24259;SDS011;12384;48.112;18.418;2023-04-25T14:25:16;9.87;;;9.37;;
24259;SDS011;12384;48.112;18.418;2023-04-25T14:27:45;9.80;;;9.17;;
24259;SDS011;12384;48.112;18.418;2023-04-25T14:30:16;9.63;;;9.13;;
24259;SDS011;12384;48.112;18.418;2023-04-25T14:32:45;8.83;;;8.43;;
24259;SDS011;12384;48.112;18.418;2023-04-25T14:35:14;10.20;;;9.40;;
24259;SDS011;12384;48.112;18.418;2023-04-25T14:37:42;9.33;;;8.83;;
24259;SDS011;12384;48.112;18.418;2023-04-25T14:40:11;9.70;;;9.00;;
24259;SDS011;12384;48.112;18.418;2023-04-25T14:42:43;9.73;;;9.23;;
24259;SDS011;12384;48.112;18.418;2023-04-25T14:45:11;9.80;;;9.30;;
24259;SDS011;12384;48.112;18.418;2023-04-25T14:47:40;10.87;;;9.97;;
24259;SDS011;12384;48.112;18.418;2023-04-25T14:50:09;10.83;;;10.23;;
24259;SDS011;12384;48.112;18.418;2023-04-25T14:52:38;9.57;;;8.97;;
24259;SDS011;12384;48.112;18.418;2023-04-25T14:55:06;10.30;;;9.50;;
24259;SDS011;12384;48.112;18.418;2023-04-25T14:57:35;10.30;;;9.80;;
24259;SDS011;12384;48.112;18.418;2023-04-25T15:00:07;10.53;;;9.93;;
24259;SDS011;12384;48.112;18.418;2023-04-25T15:02:39;10.47;;;9.87;;
24259;SDS011;12384;48.112;18.418;2023-04-25T15:05:07;10.97;;;10.37;;